createdAt,value
2018-05-10T00:01:34.774Z,1005
2018-05-10T00:07:05.170Z,1005
2018-05-10T00:12:35.584Z,1005
2018-05-10T00:18:05.939Z,1005
2018-05-10T00:23:36.297Z,1005
2018-05-10T00:29:05.656Z,1004
2018-05-10T00:34:36.070Z,1004
2018-05-10T00:40:06.400Z,1004
2018-05-10T00:45:36.751Z,1004
2018-05-10T00:51:06.108Z,1004
2018-05-10T00:56:36.459Z,1004
2018-05-10T01:02:05.836Z,1004
2018-05-10T01:07:35.307Z,1004
2018-05-10T01:13:04.450Z,1004
2018-05-10T01:18:33.815Z,1004
2018-05-10T01:24:04.321Z,1004
2018-05-10T01:29:33.450Z,1004
2018-05-10T01:35:03.785Z,1004
2018-05-10T01:40:34.104Z,1004
2018-05-10T01:51:34.946Z,1004
2018-05-10T01:57:05.099Z,1004
2018-05-10T02:02:35.488Z,1004
2018-05-10T02:08:04.738Z,1004
2018-05-10T02:13:34.050Z,1004
2018-05-10T02:19:03.336Z,1004
2018-05-10T02:24:33.621Z,1004
2018-05-10T02:30:03.976Z,1004
2018-05-10T02:35:34.346Z,1004
2018-05-10T02:41:04.519Z,1004
2018-05-10T02:46:33.805Z,1004
2018-05-10T02:52:03.572Z,1004
2018-05-10T02:57:32.875Z,1004
2018-05-10T03:03:02.702Z,1004
2018-05-10T03:08:32.006Z,1004
2018-05-10T03:14:02.279Z,1004
2018-05-10T03:19:31.474Z,1004
2018-05-10T03:25:01.834Z,1003
2018-05-10T03:30:30.936Z,1004
2018-05-10T03:36:01.224Z,1004
2018-05-10T03:41:30.445Z,1003
2018-05-10T03:46:59.686Z,1003
2018-05-10T03:52:29.871Z,1003
2018-05-10T03:58:00.247Z,1003
2018-05-10T04:03:29.323Z,1003
2018-05-10T04:08:58.550Z,1003
2018-05-10T04:14:27.756Z,1003
2018-05-10T04:19:56.895Z,1003
2018-05-10T04:25:27.751Z,1003
2018-05-10T04:36:25.537Z,1003
2018-05-10T04:41:56.038Z,1003
2018-05-10T04:47:25.022Z,1003
2018-05-10T04:52:54.265Z,1003
2018-05-10T04:58:24.526Z,1003
2018-05-10T05:03:54.735Z,1003
2018-05-10T05:09:23.941Z,1003
2018-05-10T05:14:54.210Z,1003
2018-05-10T05:20:24.484Z,1003
2018-05-10T05:25:54.702Z,1003
2018-05-10T05:31:23.961Z,1003
2018-05-10T05:36:53.269Z,1003
2018-05-10T05:42:23.558Z,1003
2018-05-10T05:47:53.852Z,1003
2018-05-10T05:53:23.133Z,1003
2018-05-10T05:58:52.422Z,1003
2018-05-10T06:04:22.792Z,1003
2018-05-10T06:09:53.067Z,1003
2018-05-10T06:20:52.736Z,1003
2018-05-10T06:26:22.055Z,1003
2018-05-10T06:31:52.572Z,1003
2018-05-10T06:37:22.812Z,1003
2018-05-10T06:42:53.687Z,1003
2018-05-10T06:48:23.774Z,1003
2018-05-10T06:53:53.267Z,1003
2018-05-10T06:59:22.777Z,1003
2018-05-10T07:04:53.627Z,1003
2018-05-10T07:10:23.943Z,1003
2018-05-10T07:15:53.637Z,1003
2018-05-10T07:21:24.197Z,1003
2018-05-10T07:26:53.797Z,1003
2018-05-10T07:32:23.338Z,1003
2018-05-10T07:37:54.020Z,1003
2018-05-10T07:43:23.624Z,1003
2018-05-10T07:48:54.364Z,1003
2018-05-10T07:54:24.144Z,1003
2018-05-10T07:59:54.618Z,1004
2018-05-10T08:05:25.273Z,1004
2018-05-10T08:10:55.272Z,1004
2018-05-10T08:16:24.562Z,1004
2018-05-10T08:21:54.185Z,1004
2018-05-10T08:27:23.836Z,1004
2018-05-10T08:32:54.600Z,1004
2018-05-10T08:38:25.108Z,1004
2018-05-10T08:43:55.756Z,1004
2018-05-10T08:49:26.478Z,1004
2018-05-10T08:54:57.196Z,1004
2018-05-10T09:00:26.735Z,1004
2018-05-10T09:05:56.567Z,1004
2018-05-10T09:11:27.225Z,1003
2018-05-10T09:16:56.764Z,1004
2018-05-10T09:22:26.539Z,1003
2018-05-10T09:27:57.180Z,1003
2018-05-10T09:33:26.856Z,1003
2018-05-10T09:38:57.619Z,1003
2018-05-10T09:44:28.353Z,1003
2018-05-10T09:49:59.103Z,1003
2018-05-10T09:55:29.104Z,1003
2018-05-10T10:00:59.714Z,1003
2018-05-10T10:06:29.481Z,1003
2018-05-10T10:11:59.330Z,1003
2018-05-10T10:17:30.144Z,1004
2018-05-10T10:23:01.053Z,1004
2018-05-10T10:28:32.147Z,1003
2018-05-10T10:34:03.202Z,1003
2018-05-10T10:39:33.808Z,1003
2018-05-10T10:45:04.845Z,1003
2018-05-10T10:50:35.807Z,1003
2018-05-10T10:56:05.867Z,1003
2018-05-10T11:01:36.288Z,1003
2018-05-10T11:07:06.109Z,1003
2018-05-10T11:12:37.209Z,1003
2018-05-10T11:18:07.363Z,1003
2018-05-10T11:23:37.598Z,1003
2018-05-10T11:29:07.661Z,1003
2018-05-10T11:34:37.702Z,1003
2018-05-10T11:40:08.224Z,1003
2018-05-10T11:45:38.842Z,1003
2018-05-10T11:51:08.912Z,1004
2018-05-10T11:56:39.181Z,1004
2018-05-10T12:02:09.417Z,1004
2018-05-10T12:07:39.777Z,1004
2018-05-10T12:13:09.963Z,1004
2018-05-10T12:18:40.885Z,1004
2018-05-10T12:24:12.353Z,1004
2018-05-10T12:29:42.163Z,1004
2018-05-10T12:35:12.694Z,1004
2018-05-10T12:40:42.570Z,1004
2018-05-10T12:46:13.453Z,1004
2018-05-10T12:51:43.304Z,1004
2018-05-10T12:57:13.030Z,1004
2018-05-10T13:02:43.035Z,1005
2018-05-10T13:08:12.519Z,1005
2018-05-10T13:13:42.472Z,1005
2018-05-10T13:19:12.372Z,1005
2018-05-10T13:24:42.761Z,1005
2018-05-10T13:30:13.754Z,1005
2018-05-10T13:35:44.410Z,1005
2018-05-10T13:41:15.347Z,1005
2018-05-10T13:46:44.903Z,1005
2018-05-10T13:52:15.597Z,1005
2018-05-10T13:57:45.371Z,1005
2018-05-10T14:03:15.654Z,1005
2018-05-10T14:08:44.801Z,1006
2018-05-10T14:14:14.632Z,1006
2018-05-10T14:19:45.263Z,1006
2018-05-10T14:25:15.470Z,1006
2018-05-10T14:30:45.491Z,1006
2018-05-10T14:36:16.205Z,1006
2018-05-10T14:41:45.840Z,1006
2018-05-10T14:47:16.212Z,1006
2018-05-10T14:52:46.690Z,1006
2018-05-10T14:58:16.138Z,1006
2018-05-10T15:14:44.478Z,1006
2018-05-10T15:20:14.916Z,1007
2018-05-10T15:25:45.510Z,1007
2018-05-10T15:31:14.886Z,1007
2018-05-10T15:36:44.913Z,1007
2018-05-10T15:42:13.858Z,1007
2018-05-10T15:47:43.373Z,1007
2018-05-10T15:53:12.712Z,1008
2018-05-10T15:58:42.228Z,1008
2018-05-10T16:04:11.836Z,1008
2018-05-10T16:09:40.962Z,1008
2018-05-10T16:20:42.186Z,1008
2018-05-10T16:26:12.402Z,1008
2018-05-10T16:31:42.661Z,1008
2018-05-10T16:37:13.507Z,1008
2018-05-10T16:42:42.619Z,1008
2018-05-10T16:48:12.201Z,1008
2018-05-10T16:53:42.609Z,1009
2018-05-10T16:59:12.803Z,1009
2018-05-10T17:04:43.063Z,1009
2018-05-10T17:10:13.445Z,1009
2018-05-10T17:15:43.711Z,1009
2018-05-10T17:21:14.107Z,1009
2018-05-10T17:26:43.314Z,1009
2018-05-10T17:32:13.597Z,1010
2018-05-10T17:37:43.942Z,1010
2018-05-10T17:43:14.204Z,1010
2018-05-10T17:48:43.492Z,1010
2018-05-10T17:54:13.694Z,1010
2018-05-10T17:59:43.994Z,1010
2018-05-10T18:05:13.324Z,1010
2018-05-10T18:10:43.624Z,1010
2018-05-10T18:16:12.671Z,1011
2018-05-10T18:21:42.031Z,1011
2018-05-10T18:27:12.262Z,1011
2018-05-10T18:32:41.322Z,1011
2018-05-10T18:38:10.519Z,1011
2018-05-10T18:43:40.675Z,1011
2018-05-10T18:49:10.854Z,1011
2018-05-10T18:54:39.926Z,1011
2018-05-10T19:00:09.072Z,1012
2018-05-10T19:05:38.209Z,1012
2018-05-10T19:11:09.169Z,1012
2018-05-10T19:16:37.436Z,1012
2018-05-10T19:22:07.597Z,1012
2018-05-10T19:27:37.636Z,1012
2018-05-10T19:33:06.683Z,1012
2018-05-10T19:38:36.742Z,1012
2018-05-10T19:44:06.863Z,1012
2018-05-10T19:49:36.886Z,1012
2018-05-10T19:55:06.015Z,1012
2018-05-10T20:00:36.091Z,1013
2018-05-10T20:06:06.129Z,1013
2018-05-10T20:11:36.349Z,1013
2018-05-10T20:17:05.127Z,1013
2018-05-10T20:22:35.203Z,1013
2018-05-10T20:28:05.309Z,1013
2018-05-10T20:33:34.161Z,1013
2018-05-10T20:39:04.245Z,1013
2018-05-10T20:44:34.267Z,1013
2018-05-10T20:55:32.368Z,1013
2018-05-10T21:01:02.441Z,1013
2018-05-10T21:06:32.469Z,1013
2018-05-10T21:12:02.278Z,1013
2018-05-10T21:17:31.068Z,1013
2018-05-10T21:23:01.100Z,1013
2018-05-10T21:28:30.070Z,1013
2018-05-10T21:33:59.098Z,1014
2018-05-10T21:39:29.050Z,1014
2018-05-10T21:44:58.015Z,1014
2018-05-10T21:50:28.078Z,1014
2018-05-10T21:55:58.011Z,1014
2018-05-10T22:01:28.052Z,1014
2018-05-10T22:06:58.133Z,1014
2018-05-10T22:12:28.234Z,1014
2018-05-10T22:17:57.923Z,1014
2018-05-10T22:23:26.860Z,1014
2018-05-10T22:28:56.851Z,1014
2018-05-10T22:34:25.965Z,1014
2018-05-10T22:39:55.780Z,1014
2018-05-10T22:45:24.673Z,1014
2018-05-10T22:50:53.852Z,1014
2018-05-10T22:56:22.697Z,1014
2018-05-10T23:01:52.601Z,1014
2018-05-10T23:07:21.611Z,1014
2018-05-10T23:12:51.536Z,1015
2018-05-10T23:18:20.576Z,1015
2018-05-10T23:23:50.488Z,1015
2018-05-10T23:29:19.477Z,1015
2018-05-10T23:34:49.468Z,1015
2018-05-10T23:40:19.407Z,1015
2018-05-10T23:45:48.291Z,1015
2018-05-10T23:51:17.299Z,1015
2018-05-10T23:56:46.255Z,1015
